Time;durP1;ratioP1;P1;durP2;ratioP2;P2;SDS_P1;SDS_P2;PMS_P1;PMS_P2;Temp;Humidity;BMP_temperature;BMP_pressure;BME280_temperature;BME280_humidity;BME280_pressure;Samples;Min_cycle;Max_cycle;Signal;HPM_P1;HPM_P2
2022/10/15 00:16:40;;;;;;;;;;;;;;;;;;;;;
2022/10/15 00:35:56;;;;;;;;;;;;;;;;;;;;;
2022/10/15 01:16:20;;;;;;;20.83;14.52;;;;;;;;;;4987673;28;20049;-81
2022/10/15 01:22:33;;;;;;;20.48;15.27;;;;;;;;;;5021535;28;20049;-80
2022/10/15 01:28:48;;;;;;;23.90;15.07;;;;;;;;;;5032360;28;20025;-83
2022/10/15 02:41:58;;;;;;;21.65;15.20;;;;;;;;;;5037116;28;20044;-79
2022/10/15 04:17:01;;;;;;;;;;;;;;;;;;;;;
2022/10/15 04:22:45;;;;;;;19.95;14.93;;;;;;;;;;4990078;28;20101;-76
2022/10/15 04:25:29;;;;;;;23.85;16.17;;;;;;;;;;4990465;28;20060;-79
2022/10/15 04:28:23;;;;;;;28.50;18.30;;;;;;;;;;4991235;28;20035;-79
2022/10/15 04:40:47;;;;;;;;;;;;;;;;;;;;;
2022/10/15 04:46:57;;;;;;;27.50;20.38;;;;;;;;;;4979142;28;20068;-81
2022/10/15 05:04:29;;;;;;;26.85;20.45;;;;;;;;;;5057820;22;20049;-78
2022/10/15 05:06:55;;;;;;;31.13;20.88;;;;;;;;;;5035246;28;20467;-78
2022/10/15 05:09:21;;;;;;;29.17;20.30;;;;;;;;;;5035886;28;20025;-77
2022/10/15 05:11:47;;;;;;;25.35;17.92;;;;;;;;;;5035145;28;20026;-79
2022/10/15 05:14:13;;;;;;;28.45;19.52;;;;;;;;;;5037433;28;20059;-79
2022/10/15 05:16:39;;;;;;;23.27;17.17;;;;;;;;;;5003201;28;20105;-79
2022/10/15 05:19:06;;;;;;;22.00;16.98;;;;;;;;;;5039124;28;20026;-79
2022/10/15 05:21:33;;;;;;;23.52;18.38;;;;;;;;;;5034842;28;20025;-79
2022/10/15 05:23:59;;;;;;;26.17;18.38;;;;;;;;;;5037731;28;20022;-79
2022/10/15 05:26:26;;;;;;;26.27;18.20;;;;;;;;;;5024999;28;20017;-80
2022/10/15 05:28:53;;;;;;;24.25;18.65;;;;;;;;;;5045958;28;20032;-79
2022/10/15 05:31:20;;;;;;;24.40;18.20;;;;;;;;;;5025812;28;20048;-79
2022/10/15 05:33:47;;;;;;;24.98;18.35;;;;;;;;;;5028892;28;20033;-79
2022/10/15 05:36:22;;;;;;;20.75;18.13;;;;;;;;;;5048563;28;20033;-80
2022/10/15 05:38:49;;;;;;;26.23;19.20;;;;;;;;;;5025154;28;20025;-79
2022/10/15 05:41:15;;;;;;;29.20;18.33;;;;;;;;;;5034382;28;20029;-79
2022/10/15 05:43:41;;;;;;;24.00;17.80;;;;;;;;;;5025485;28;20032;-79
2022/10/15 05:46:13;;;;;;;22.35;17.00;;;;;;;;;;5029658;28;20036;-80
2022/10/15 05:48:39;;;;;;;23.42;18.13;;;;;;;;;;5015159;28;20031;-80
2022/10/15 05:51:07;;;;;;;25.92;18.10;;;;;;;;;;5047205;28;20152;-80
2022/10/15 05:53:37;;;;;;;20.60;16.38;;;;;;;;;;5025358;28;20029;-79
2022/10/15 05:56:03;;;;;;;23.23;17.67;;;;;;;;;;5023115;28;20021;-79
2022/10/15 05:58:29;;;;;;;21.58;17.40;;;;;;;;;;5021230;28;20120;-79
2022/10/15 06:00:59;;;;;;;19.95;15.45;;;;;;;;;;5038231;28;20025;-79
2022/10/15 06:03:26;;;;;;;22.67;17.20;;;;;;;;;;5037647;28;20132;-78
2022/10/15 06:05:54;;;;;;;23.15;16.55;;;;;;;;;;5021721;28;20022;-79
2022/10/15 06:08:24;;;;;;;22.88;16.67;;;;;;;;;;5021459;28;20049;-79
2022/10/15 06:10:52;;;;;;;21.15;16.38;;;;;;;;;;5038450;28;20026;-78
2022/10/15 06:13:18;;;;;;;22.25;15.77;;;;;;;;;;5019965;28;20033;-79
2022/10/15 06:15:45;;;;;;;19.40;15.90;;;;;;;;;;5038450;28;20021;-80
2022/10/15 06:18:14;;;;;;;24.13;16.33;;;;;;;;;;5040596;28;20064;-79
2022/10/15 06:20:47;;;;;;;19.98;15.52;;;;;;;;;;5043150;28;20021;-79
2022/10/15 06:23:23;;;;;;;21.83;17.20;;;;;;;;;;5044087;28;20041;-80
2022/10/15 06:25:54;;;;;;;19.90;15.15;;;;;;;;;;5046835;28;20021;-81
2022/10/15 06:28:20;;;;;;;;;;;;;;;;;;5028157;28;20017;-80
2022/10/15 06:30:49;;;;;;;17.40;14.00;;;;;;;;;;5026794;28;20315;-80
2022/10/15 06:33:23;;;;;;;21.45;15.50;;;;;;;;;;5024009;28;20048;-79
2022/10/15 06:35:52;;;;;;;16.75;13.43;;;;;;;;;;5032193;28;20060;-80
2022/10/15 06:38:20;;;;;;;18.50;13.35;;;;;;;;;;5031471;28;20041;-79
2022/10/15 06:40:46;;;;;;;16.83;13.68;;;;;;;;;;5023169;28;20038;-79
2022/10/15 06:43:45;;;;;;;18.45;13.13;;;;;;;;;;5026336;28;20169;-78
2022/10/15 06:46:11;;;;;;;16.48;12.27;;;;;;;;;;5007267;28;20057;-80
2022/10/15 06:48:37;;;;;;;15.57;12.70;;;;;;;;;;5044392;28;20036;-79
2022/10/15 06:51:13;;;;;;;13.82;11.93;;;;;;;;;;5020242;28;20021;-78
2022/10/15 06:53:41;;;;;;;15.95;11.77;;;;;;;;;;5033126;28;20072;-79
2022/10/15 06:56:07;;;;;;;19.85;11.20;;;;;;;;;;5036612;28;20021;-79
2022/10/15 06:58:33;;;;;;;14.38;11.20;;;;;;;;;;5035657;28;20027;-79
2022/10/15 07:01:00;;;;;;;14.60;10.13;;;;;;;;;;5034066;28;20025;-78
2022/10/15 07:03:26;;;;;;;14.35;11.25;;;;;;;;;;5035227;28;20045;-78
2022/10/15 07:05:52;;;;;;;16.00;11.50;;;;;;;;;;5036758;28;20022;-79
2022/10/15 07:08:18;;;;;;;17.08;11.13;;;;;;;;;;5035299;28;20021;-77
2022/10/15 07:10:44;;;;;;;16.75;11.48;;;;;;;;;;5032906;28;20029;-78
2022/10/15 07:13:10;;;;;;;14.77;11.32;;;;;;;;;;5032905;28;20395;-78
2022/10/15 07:15:36;;;;;;;17.30;10.73;;;;;;;;;;5032455;28;20029;-78
2022/10/15 07:18:02;;;;;;;14.52;10.73;;;;;;;;;;5031958;28;20391;-78
2022/10/15 07:20:29;;;;;;;14.35;11.95;;;;;;;;;;5014812;28;20113;-78
2022/10/15 07:22:59;;;;;;;13.65;10.55;;;;;;;;;;5032141;28;20032;-78
2022/10/15 07:25:26;;;;;;;16.00;11.10;;;;;;;;;;5033018;28;20104;-79
2022/10/15 07:27:54;;;;;;;12.68;9.73;;;;;;;;;;5032638;28;20025;-78
2022/10/15 07:30:20;;;;;;;14.43;11.05;;;;;;;;;;5038982;28;20037;-79
2022/10/15 07:32:46;;;;;;;12.63;10.77;;;;;;;;;;5022419;28;20395;-79
2022/10/15 07:35:12;;;;;;;14.00;11.05;;;;;;;;;;5038286;28;20045;-80
2022/10/15 07:37:41;;;;;;;13.20;10.30;;;;;;;;;;5034789;28;20025;-79
2022/10/15 07:40:07;;;;;;;17.30;10.18;;;;;;;;;;5040002;28;20018;-78
2022/10/15 07:42:33;;;;;;;11.13;9.23;;;;;;;;;;5034330;28;20093;-79
2022/10/15 07:44:59;;;;;;;11.98;9.18;;;;;;;;;;5036590;28;20056;-80
2022/10/15 07:47:25;;;;;;;9.98;8.77;;;;;;;;;;5038768;28;20059;-79
2022/10/15 07:49:57;;;;;;;9.75;7.72;;;;;;;;;;5037603;28;20032;-80
2022/10/15 07:52:22;;;;;;;9.93;8.18;;;;;;;;;;5036346;28;20025;-79
2022/10/15 07:54:48;;;;;;;9.80;7.95;;;;;;;;;;5037926;28;20026;-79
2022/10/15 07:57:14;;;;;;;10.63;8.00;;;;;;;;;;5039332;28;20116;-80
2022/10/15 07:59:40;;;;;;;8.77;7.65;;;;;;;;;;5017788;28;20081;-79
2022/10/15 08:02:11;;;;;;;9.57;7.00;;;;;;;;;;5033027;28;20021;-78
2022/10/15 08:04:37;;;;;;;9.65;8.00;;;;;;;;;;5033968;28;20037;-79
2022/10/15 08:07:03;;;;;;;9.20;6.88;;;;;;;;;;5016459;28;20086;-79
2022/10/15 08:09:29;;;;;;;9.63;6.68;;;;;;;;;;5028736;28;20558;-79
2022/10/15 08:11:58;;;;;;;14.40;7.30;;;;;;;;;;5041598;28;20033;-79
2022/10/15 08:14:30;;;;;;;9.75;7.13;;;;;;;;;;5040820;28;20033;-79
2022/10/15 08:16:56;;;;;;;10.50;6.75;;;;;;;;;;5022335;28;20026;-80
2022/10/15 08:19:22;;;;;;;7.90;6.53;;;;;;;;;;5039356;28;20036;-79
2022/10/15 08:21:48;;;;;;;9.73;7.32;;;;;;;;;;5024928;28;20075;-79
2022/10/15 08:24:14;;;;;;;10.55;6.78;;;;;;;;;;5031882;28;20582;-80
2022/10/15 08:26:43;;;;;;;8.40;6.47;;;;;;;;;;5049601;28;20018;-80
2022/10/15 08:29:10;;;;;;;8.50;6.93;;;;;;;;;;5049218;28;20021;-80
2022/10/15 08:31:36;;;;;;;10.55;7.10;;;;;;;;;;5035380;28;20444;-79
2022/10/15 08:34:02;;;;;;;10.48;7.70;;;;;;;;;;5026924;28;20033;-80
2022/10/15 08:36:28;;;;;;;10.20;7.63;;;;;;;;;;5039111;28;20025;-79
2022/10/15 08:38:54;;;;;;;12.43;7.82;;;;;;;;;;5039663;28;20033;-80
2022/10/15 08:41:39;;;;;;;9.30;7.55;;;;;;;;;;5040770;28;20021;-79
2022/10/15 08:44:06;;;;;;;8.43;7.47;;;;;;;;;;5040564;28;20020;-79
2022/10/15 08:46:38;;;;;;;9.23;7.80;;;;;;;;;;5037908;28;20022;-80
2022/10/15 08:49:14;;;;;;;9.98;7.53;;;;;;;;;;5042748;28;20022;-79
2022/10/15 08:51:43;;;;;;;7.60;6.80;;;;;;;;;;5039736;28;20602;-79
2022/10/15 08:54:13;;;;;;;10.38;6.70;;;;;;;;;;5040692;28;20480;-79
2022/10/15 08:56:42;;;;;;;7.22;6.53;;;;;;;;;;5041892;28;20454;-80
2022/10/15 08:59:11;;;;;;;7.35;6.57;;;;;;;;;;5041810;28;20109;-78
2022/10/15 09:01:48;;;;;;;5.82;5.00;;;;;;;;;;5021703;28;20522;-79
2022/10/15 09:04:41;;;;;;;7.88;5.60;;;;;;;;;;5027906;28;20049;-79
2022/10/15 09:07:14;;;;;;;7.13;5.38;;;;;;;;;;5012741;28;20021;-80
2022/10/15 09:09:47;;;;;;;7.43;5.30;;;;;;;;;;5045150;28;20030;-79
2022/10/15 09:12:35;;;;;;;5.30;4.80;;;;;;;;;;5042356;28;20028;-80
2022/10/15 09:15:04;;;;;;;7.90;5.38;;;;;;;;;;5043615;28;20025;-80
2022/10/15 09:17:32;;;;;;;5.80;5.20;;;;;;;;;;5041761;28;20100;-81
2022/10/15 09:27:05;;;;;;;4.82;4.18;;;;;;;;;;5032736;28;20033;-82
2022/10/15 09:35:54;;;;;;;5.90;3.92;;;;;;;;;;4997749;28;20017;-79
2022/10/15 09:38:40;;;;;;;5.38;4.13;;;;;;;;;;5033711;28;20092;-79
2022/10/15 09:41:26;;;;;;;7.80;4.38;;;;;;;;;;5037222;28;20045;-80
2022/10/15 09:43:55;;;;;;;6.43;4.20;;;;;;;;;;5006041;28;20041;-80
2022/10/15 09:46:24;;;;;;;5.85;4.18;;;;;;;;;;5022113;28;20108;-81
2022/10/15 09:48:54;;;;;;;7.05;3.83;;;;;;;;;;5024905;28;20025;-82
2022/10/15 09:51:31;;;;;;;6.68;3.95;;;;;;;;;;5039126;28;20030;-79
2022/10/15 09:53:59;;;;;;;3.92;3.50;;;;;;;;;;5041506;28;20025;-80
2022/10/15 09:56:40;;;;;;;3.80;3.50;;;;;;;;;;5041264;28;20037;-79
2022/10/15 09:59:06;;;;;;;4.75;3.45;;;;;;;;;;5027834;28;20040;-78
2022/10/15 10:01:33;;;;;;;13.65;3.72;;;;;;;;;;5038726;28;20086;-76
2022/10/15 10:04:19;;;;;;;4.20;3.67;;;;;;;;;;5086948;22;20450;-78
2022/10/15 10:06:53;;;;;;;5.05;3.60;;;;;;;;;;5052545;28;20565;-78
2022/10/15 10:09:21;;;;;;;3.72;3.42;;;;;;;;;;5052786;28;20014;-78
2022/10/15 10:11:49;;;;;;;4.38;3.50;;;;;;;;;;5040151;28;20037;-78
2022/10/15 10:14:26;;;;;;;3.70;3.08;;;;;;;;;;5040886;28;20511;-77
2022/10/15 10:17:04;;;;;;;5.88;2.97;;;;;;;;;;5032925;28;20101;-77
2022/10/15 10:20:01;;;;;;;8.50;3.25;;;;;;;;;;5054530;22;20037;-76
2022/10/15 10:25:47;;;;;;;4.88;3.60;;;;;;;;;;4942780;29;20509;-74
2022/10/15 10:28:17;;;;;;;5.18;3.38;;;;;;;;;;5025611;28;20091;-76
2022/10/15 10:31:02;;;;;;;5.32;3.25;;;;;;;;;;5033570;28;20021;-76
2022/10/15 10:33:34;;;;;;;3.90;3.10;;;;;;;;;;5015170;28;20036;-76
2022/10/15 10:36:00;;;;;;;8.45;3.63;;;;;;;;;;5033034;28;20097;-75
2022/10/15 10:38:26;;;;;;;5.60;3.92;;;;;;;;;;5032518;28;20052;-76
2022/10/15 10:40:54;;;;;;;4.50;3.25;;;;;;;;;;5014884;28;20495;-77
2022/10/15 10:43:29;;;;;;;6.45;3.38;;;;;;;;;;5033696;28;20095;-76
2022/10/15 10:45:55;;;;;;;8.00;3.78;;;;;;;;;;5032682;28;20028;-77
2022/10/15 10:48:48;;;;;;;4.75;3.30;;;;;;;;;;5060522;23;20045;-76
2022/10/15 10:51:32;;;;;;;5.60;3.20;;;;;;;;;;5037597;28;20045;-78
2022/10/15 10:53:58;;;;;;;4.38;2.75;;;;;;;;;;5033121;28;20032;-77
2022/10/15 10:56:33;;;;;;;3.35;2.50;;;;;;;;;;5034501;28;20029;-77
2022/10/15 10:59:03;;;;;;;2.55;1.77;;;;;;;;;;5049181;28;20507;-76
2022/10/15 11:01:29;;;;;;;1.73;1.50;;;;;;;;;;5036248;28;20076;-76
2022/10/15 11:03:55;;;;;;;1.25;0.80;;;;;;;;;;5054056;22;20045;-77
2022/10/15 11:06:36;;;;;;;1.98;1.10;;;;;;;;;;5014185;28;20037;-77
2022/10/15 11:09:05;;;;;;;1.13;0.93;;;;;;;;;;5032140;28;20395;-78
2022/10/15 11:11:50;;;;;;;1.27;1.17;;;;;;;;;;5032396;28;20037;-78
2022/10/15 11:14:16;;;;;;;1.08;0.98;;;;;;;;;;5032051;28;20021;-78
2022/10/15 11:16:52;;;;;;;1.02;0.90;;;;;;;;;;5032031;28;20022;-77
2022/10/15 11:19:22;;;;;;;1.02;0.90;;;;;;;;;;5031760;28;20420;-77
2022/10/15 11:22:08;;;;;;;1.33;1.13;;;;;;;;;;5014352;28;20108;-77
2022/10/15 11:24:46;;;;;;;2.03;1.25;;;;;;;;;;5032357;28;20025;-77
2022/10/15 11:27:37;;;;;;;1.35;1.17;;;;;;;;;;5014170;28;20107;-78
2022/10/15 11:30:04;;;;;;;1.20;1.10;;;;;;;;;;5031664;28;20487;-78
2022/10/15 11:32:48;;;;;;;2.92;1.38;;;;;;;;;;5015973;28;20076;-77
2022/10/15 11:35:14;;;;;;;1.02;0.90;;;;;;;;;;5031614;28;20021;-77
2022/10/15 11:38:02;;;;;;;1.77;0.90;;;;;;;;;;5032419;28;20075;-78
2022/10/15 11:40:35;;;;;;;0.73;0.70;;;;;;;;;;5019857;28;20126;-78
2022/10/15 11:43:18;;;;;;;1.02;0.60;;;;;;;;;;5013984;28;20032;-77
2022/10/15 11:45:52;;;;;;;1.08;0.70;;;;;;;;;;5014134;28;20480;-78
2022/10/15 11:48:37;;;;;;;1.02;0.77;;;;;;;;;;5031638;28;20024;-77
2022/10/15 11:51:08;;;;;;;1.60;0.90;;;;;;;;;;5031781;28;20163;-77
2022/10/15 11:53:46;;;;;;;1.10;0.90;;;;;;;;;;5031018;28;20057;-77
2022/10/15 11:56:40;;;;;;;0.60;0.60;;;;;;;;;;5032746;28;20026;-80
2022/10/15 11:59:09;;;;;;;0.95;0.60;;;;;;;;;;5032483;28;20036;-77
2022/10/15 12:01:43;;;;;;;1.27;0.60;;;;;;;;;;5031447;28;20104;-77
2022/10/15 12:04:14;;;;;;;0.40;0.30;;;;;;;;;;5031914;28;20365;-78
2022/10/15 12:06:40;;;;;;;;;;;;;;;;;;5014659;28;20447;-78
2022/10/15 12:09:06;;;;;;;1.55;0.47;;;;;;;;;;5031754;28;19905;-78
2022/10/15 12:11:47;;;;;;;2.60;1.63;;;;;;;;;;5031741;28;20068;-78
2022/10/15 12:14:17;;;;;;;1.92;0.75;;;;;;;;;;5032972;28;20029;-78
2022/10/15 12:17:06;;;;;;;3.10;0.60;;;;;;;;;;5032188;28;20036;-78
2022/10/15 12:19:45;;;;;;;2.70;1.17;;;;;;;;;;5031434;28;20300;-77
2022/10/15 12:22:11;;;;;;;3.42;0.63;;;;;;;;;;5020334;28;20021;-77
2022/10/15 12:24:43;;;;;;;0.90;0.40;;;;;;;;;;5032406;28;20018;-78
2022/10/15 12:27:21;;;;;;;0.70;0.45;;;;;;;;;;5032486;28;20017;-78
2022/10/15 12:29:59;;;;;;;3.05;0.60;;;;;;;;;;5032966;28;20017;-77
2022/10/15 12:32:28;;;;;;;0.50;0.30;;;;;;;;;;5035186;28;20075;-77
2022/10/15 12:35:01;;;;;;;0.40;0.20;;;;;;;;;;5015904;28;20155;-78
2022/10/15 12:37:28;;;;;;;0.50;0.22;;;;;;;;;;5032214;28;20053;-77
2022/10/15 12:39:56;;;;;;;0.40;0.30;;;;;;;;;;5033909;28;20053;-77
2022/10/15 12:42:26;;;;;;;1.13;0.35;;;;;;;;;;5031861;28;20022;-77
2022/10/15 12:44:52;;;;;;;1.45;0.30;;;;;;;;;;5013169;28;20025;-77
2022/10/15 12:47:37;;;;;;;1.65;0.40;;;;;;;;;;5013840;28;20387;-78
2022/10/15 12:50:04;;;;;;;0.35;0.30;;;;;;;;;;5031780;28;20104;-77
2022/10/15 12:52:50;;;;;;;2.15;0.70;;;;;;;;;;5032124;28;20116;-77
2022/10/15 12:55:21;;;;;;;0.85;0.65;;;;;;;;;;5032282;28;20031;-77
2022/10/15 12:57:47;;;;;;;1.63;0.52;;;;;;;;;;5032319;28;20022;-77
2022/10/15 13:00:25;;;;;;;0.40;0.40;;;;;;;;;;5031738;28;20499;-77
2022/10/15 13:02:53;;;;;;;0.65;0.20;;;;;;;;;;5014459;28;20026;-77
2022/10/15 13:05:26;;;;;;;0.35;0.25;;;;;;;;;;5019776;28;20062;-76
2022/10/15 13:07:54;;;;;;;1.00;0.28;;;;;;;;;;5032976;28;20021;-78
2022/10/15 13:10:32;;;;;;;0.20;0.20;;;;;;;;;;5035920;28;20024;-77
2022/10/15 13:13:12;;;;;;;0.80;0.30;;;;;;;;;;5035668;28;20025;-77
2022/10/15 13:15:39;;;;;;;0.60;0.32;;;;;;;;;;5041480;28;20063;-77
2022/10/15 13:18:10;;;;;;;0.35;0.30;;;;;;;;;;5041010;28;20434;-77
2022/10/15 13:20:36;;;;;;;;;;;;;;;;;;5022405;28;20029;-77
2022/10/15 13:23:08;;;;;;;0.40;0.35;;;;;;;;;;5038396;28;19951;-77
2022/10/15 13:25:34;;;;;;;0.50;0.40;;;;;;;;;;5044584;28;20025;-77
2022/10/15 13:28:00;;;;;;;3.75;0.73;;;;;;;;;;5041441;28;20025;-77
2022/10/15 13:30:26;;;;;;;0.85;0.40;;;;;;;;;;5040171;28;20056;-77
2022/10/15 13:32:53;;;;;;;0.85;0.50;;;;;;;;;;5038973;28;20071;-76
2022/10/15 13:35:31;;;;;;;0.55;0.52;;;;;;;;;;5039478;28;20472;-77
2022/10/15 13:37:58;;;;;;;0.43;0.32;;;;;;;;;;5039725;28;20399;-77
2022/10/15 13:40:28;;;;;;;0.55;0.30;;;;;;;;;;5042726;28;20029;-78
2022/10/15 13:43:20;;;;;;;1.38;0.52;;;;;;;;;;5043727;28;20105;-77
2022/10/15 13:45:47;;;;;;;1.15;0.40;;;;;;;;;;5038828;28;20060;-78
2022/10/15 13:48:19;;;;;;;0.93;0.40;;;;;;;;;;5034921;28;20025;-78
2022/10/15 13:50:45;;;;;;;;;;;;;;;;;;5034120;28;20116;-78
2022/10/15 13:53:23;;;;;;;1.45;0.52;;;;;;;;;;5017478;28;19909;-78
2022/10/15 13:55:50;;;;;;;1.95;0.93;;;;;;;;;;5033968;28;20487;-77
2022/10/15 13:58:29;;;;;;;0.45;0.30;;;;;;;;;;5015696;28;20075;-78
2022/10/15 14:00:57;;;;;;;0.73;0.40;;;;;;;;;;5033826;28;20487;-78
2022/10/15 14:03:24;;;;;;;3.58;0.88;;;;;;;;;;5033491;28;20029;-78
2022/10/15 14:05:51;;;;;;;0.70;0.40;;;;;;;;;;5033784;28;20075;-77
2022/10/15 14:08:17;;;;;;;3.20;0.40;;;;;;;;;;5033270;28;20100;-77
2022/10/15 14:10:43;;;;;;;2.70;0.40;;;;;;;;;;5034393;28;20025;-78
2022/10/15 14:13:10;;;;;;;0.90;0.50;;;;;;;;;;5033594;28;20488;-77
2022/10/15 14:15:45;;;;;;;0.52;0.50;;;;;;;;;;5015417;28;20034;-77
2022/10/15 14:18:16;;;;;;;2.05;0.40;;;;;;;;;;5033073;28;20033;-77
2022/10/15 14:20:43;;;;;;;1.20;0.40;;;;;;;;;;5037263;28;20026;-78
2022/10/15 14:23:20;;;;;;;2.47;0.50;;;;;;;;;;5036025;28;20321;-78
2022/10/15 14:25:51;;;;;;;0.95;0.40;;;;;;;;;;5017770;28;20021;-77
2022/10/15 14:28:19;;;;;;;0.38;0.38;;;;;;;;;;5034382;28;20009;-77
2022/10/15 14:30:46;;;;;;;1.27;0.82;;;;;;;;;;5034942;28;20056;-77
2022/10/15 14:33:31;;;;;;;1.15;0.73;;;;;;;;;;5016016;28;20025;-77
2022/10/15 14:36:16;;;;;;;1.42;1.10;;;;;;;;;;5033675;28;20026;-77
2022/10/15 14:38:42;;;;;;;0.95;0.75;;;;;;;;;;5020010;28;20108;-78
2022/10/15 14:41:20;;;;;;;2.45;0.95;;;;;;;;;;5035505;28;20040;-77
2022/10/15 14:43:46;;;;;;;3.35;0.98;;;;;;;;;;5023045;28;20014;-78
2022/10/15 14:46:19;;;;;;;2.25;0.75;;;;;;;;;;5039715;28;20052;-80
2022/10/15 14:48:45;;;;;;;2.40;0.63;;;;;;;;;;5025703;28;20018;-78
2022/10/15 14:51:22;;;;;;;0.95;0.85;;;;;;;;;;5019416;28;20029;-79
2022/10/15 14:53:49;;;;;;;2.65;1.00;;;;;;;;;;5018051;28;20029;-80
2022/10/15 14:56:18;;;;;;;1.88;0.60;;;;;;;;;;5018758;28;20035;-80
2022/10/15 14:58:51;;;;;;;0.65;0.63;;;;;;;;;;5046839;28;20026;-77
2022/10/15 15:01:18;;;;;;;4.38;2.72;;;;;;;;;;5031454;28;20026;-78
2022/10/15 15:03:54;;;;;;;37.03;25.58;;;;;;;;;;5016385;28;20067;-77
2022/10/15 15:06:20;;;;;;;7.13;4.65;;;;;;;;;;5016921;28;20509;-78
2022/10/15 15:08:47;;;;;;;6.25;4.20;;;;;;;;;;5036552;28;20392;-79
2022/10/15 15:11:17;;;;;;;10.07;6.93;;;;;;;;;;5033394;28;20033;-77
2022/10/15 15:13:44;;;;;;;2.80;2.47;;;;;;;;;;5025710;28;20044;-77
2022/10/15 15:16:14;;;;;;;5.10;2.50;;;;;;;;;;5020225;28;20112;-78
2022/10/15 15:18:45;;;;;;;6.80;2.70;;;;;;;;;;5030376;28;20053;-77
2022/10/15 15:21:12;;;;;;;4.43;2.70;;;;;;;;;;5032412;28;20029;-78
2022/10/15 15:23:38;;;;;;;3.95;2.38;;;;;;;;;;5020568;28;20044;-79
2022/10/15 15:26:04;;;;;;;4.22;1.88;;;;;;;;;;5040509;28;20032;-78
2022/10/15 15:28:30;;;;;;;4.05;2.90;;;;;;;;;;5025734;28;20025;-74
2022/10/15 15:30:58;;;;;;;2.03;1.05;;;;;;;;;;5032447;28;20104;-73
2022/10/15 15:33:24;;;;;;;2.75;1.52;;;;;;;;;;5015257;28;20025;-75
2022/10/15 15:35:55;;;;;;;1.90;1.42;;;;;;;;;;5032508;28;20100;-76
2022/10/15 15:38:29;;;;;;;5.72;2.63;;;;;;;;;;5031838;28;20076;-75
2022/10/15 15:40:59;;;;;;;2.15;1.40;;;;;;;;;;5033154;28;20075;-77
2022/10/15 15:43:25;;;;;;;4.60;2.15;;;;;;;;;;5032520;28;20035;-77
2022/10/15 15:45:51;;;;;;;3.92;1.98;;;;;;;;;;5033098;28;20104;-76
2022/10/15 15:48:17;;;;;;;8.25;4.07;;;;;;;;;;5014001;28;20020;-76
2022/10/15 15:50:43;;;;;;;3.13;2.22;;;;;;;;;;5032733;28;20029;-77
2022/10/15 15:53:11;;;;;;;2.97;1.92;;;;;;;;;;5017167;28;20029;-78
2022/10/15 15:55:37;;;;;;;3.38;2.05;;;;;;;;;;5038350;28;20025;-79
2022/10/15 15:58:03;;;;;;;3.95;2.42;;;;;;;;;;5036149;28;20107;-79
2022/10/15 16:00:29;;;;;;;4.97;2.00;;;;;;;;;;5036931;28;20545;-79
2022/10/15 16:02:55;;;;;;;3.55;2.38;;;;;;;;;;5036316;28;20039;-80
2022/10/15 16:05:23;;;;;;;4.78;2.25;;;;;;;;;;5034999;28;20344;-77
2022/10/15 16:07:49;;;;;;;3.42;1.95;;;;;;;;;;5033049;28;20021;-78
2022/10/15 16:10:15;;;;;;;3.25;2.40;;;;;;;;;;5033765;28;20036;-77
2022/10/15 16:12:43;;;;;;;3.03;2.22;;;;;;;;;;5032691;28;20026;-78
2022/10/15 16:15:11;;;;;;;4.93;2.90;;;;;;;;;;5034473;28;20032;-81
2022/10/15 16:17:37;;;;;;;4.00;2.60;;;;;;;;;;5017932;28;20116;-82
2022/10/15 16:20:04;;;;;;;4.68;2.33;;;;;;;;;;5017383;28;20029;-81
2022/10/15 16:22:30;;;;;;;6.47;4.55;;;;;;;;;;5034776;28;20103;-80
2022/10/15 16:24:59;;;;;;;11.85;9.07;;;;;;;;;;5015954;28;20024;-79
2022/10/15 16:27:27;;;;;;;18.00;12.18;;;;;;;;;;5034255;28;20035;-81
2022/10/15 16:30:17;;;;;;;10.55;6.35;;;;;;;;;;5019278;28;20369;-80
2022/10/15 16:40:36;;;;;;;4.68;3.60;;;;;;;;;;3657699;22;20049;-80
2022/10/15 16:43:07;;;;;;;5.45;3.38;;;;;;;;;;5036698;28;20048;-80
2022/10/15 16:45:36;;;;;;;6.57;4.65;;;;;;;;;;5040276;28;20029;-80
2022/10/15 16:48:02;;;;;;;7.13;4.88;;;;;;;;;;5038264;28;20021;-78
2022/10/15 16:50:50;;;;;;;12.00;5.25;;;;;;;;;;5040914;28;20029;-83
2022/10/15 16:53:16;;;;;;;2.88;2.28;;;;;;;;;;5049648;23;20049;-81
2022/10/15 16:55:42;;;;;;;3.67;2.20;;;;;;;;;;5040273;28;20028;-77
2022/10/15 16:58:08;;;;;;;13.48;9.90;;;;;;;;;;5038806;28;20106;-82
2022/10/15 17:00:34;;;;;;;10.15;7.28;;;;;;;;;;5025377;28;20046;-81
2022/10/15 17:03:00;;;;;;;5.13;3.72;;;;;;;;;;4998128;28;20106;-81
2022/10/15 17:05:26;;;;;;;5.78;2.38;;;;;;;;;;4987685;28;20029;-77
2022/10/15 17:07:52;;;;;;;3.92;2.63;;;;;;;;;;5012429;28;20401;-78
2022/10/15 17:10:24;;;;;;;4.30;2.08;;;;;;;;;;4999438;28;20019;-78
2022/10/15 17:12:50;;;;;;;3.60;3.03;;;;;;;;;;4999353;28;20031;-75
2022/10/15 17:15:16;;;;;;;5.63;3.20;;;;;;;;;;4991547;28;20404;-78
2022/10/15 17:17:42;;;;;;;5.38;2.47;;;;;;;;;;4986368;28;20039;-77
2022/10/15 17:20:08;;;;;;;3.22;2.40;;;;;;;;;;4997946;28;20516;-78
2022/10/15 17:22:35;;;;;;;3.85;2.90;;;;;;;;;;4994367;28;20109;-78
2022/10/15 17:25:01;;;;;;;4.03;2.35;;;;;;;;;;4997934;28;20029;-79
2022/10/15 17:27:27;;;;;;;4.38;2.90;;;;;;;;;;5003985;28;20046;-76
2022/10/15 17:29:53;;;;;;;4.97;3.90;;;;;;;;;;4994183;28;21232;-79
2022/10/15 17:32:19;;;;;;;5.60;3.60;;;;;;;;;;4977328;28;20105;-75
2022/10/15 17:34:45;;;;;;;4.40;3.53;;;;;;;;;;4991565;28;20548;-76
2022/10/15 17:37:12;;;;;;;4.05;3.22;;;;;;;;;;4990062;28;20029;-76
2022/10/15 17:39:38;;;;;;;5.18;4.22;;;;;;;;;;4986759;28;20026;-77
2022/10/15 17:42:04;;;;;;;7.07;4.68;;;;;;;;;;4992087;28;20029;-77
2022/10/15 17:44:30;;;;;;;7.18;5.05;;;;;;;;;;4990868;28;20444;-77
2022/10/15 17:46:57;;;;;;;7.53;5.97;;;;;;;;;;4991453;28;20268;-77
2022/10/15 17:49:23;;;;;;;6.05;4.70;;;;;;;;;;4987918;28;20073;-74
2022/10/15 17:51:49;;;;;;;7.60;4.65;;;;;;;;;;4989996;28;20026;-77
2022/10/15 17:54:15;;;;;;;6.20;4.70;;;;;;;;;;4993306;28;20042;-77
2022/10/15 17:56:41;;;;;;;6.78;5.30;;;;;;;;;;4998885;28;20034;-77
2022/10/15 17:59:08;;;;;;;6.20;4.95;;;;;;;;;;4999049;28;20057;-77
2022/10/15 18:01:36;;;;;;;7.30;5.15;;;;;;;;;;5014755;28;20014;-77
2022/10/15 18:04:02;;;;;;;7.35;5.47;;;;;;;;;;5005648;28;20295;-76
2022/10/15 18:06:28;;;;;;;8.90;5.30;;;;;;;;;;4990891;28;20018;-77
2022/10/15 18:08:55;;;;;;;5.15;4.43;;;;;;;;;;4992185;28;20391;-79
2022/10/15 18:11:24;;;;;;;7.45;5.15;;;;;;;;;;4986813;28;20113;-78
2022/10/15 18:13:50;;;;;;;4.82;4.15;;;;;;;;;;4994469;28;20408;-78
2022/10/15 18:16:16;;;;;;;7.00;4.63;;;;;;;;;;4993823;28;20026;-76
2022/10/15 18:18:42;;;;;;;10.15;5.13;;;;;;;;;;4976601;28;20049;-76
2022/10/15 18:21:11;;;;;;;9.35;6.75;;;;;;;;;;4994029;28;20085;-77
2022/10/15 18:23:37;;;;;;;7.38;5.25;;;;;;;;;;4976282;28;20030;-77
2022/10/15 18:26:21;;;;;;;7.60;4.03;;;;;;;;;;4993866;28;20034;-77
2022/10/15 18:28:51;;;;;;;6.25;4.00;;;;;;;;;;4981821;28;20050;-76
2022/10/15 18:31:17;;;;;;;5.47;3.95;;;;;;;;;;5007771;28;20029;-78
2022/10/15 18:33:45;;;;;;;9.15;6.20;;;;;;;;;;4983530;28;20226;-80
2022/10/15 18:36:13;;;;;;;7.28;4.70;;;;;;;;;;5000939;28;20050;-77
2022/10/15 18:38:42;;;;;;;5.18;3.10;;;;;;;;;;5003911;28;20105;-76
2022/10/15 18:41:17;;;;;;;10.05;5.68;;;;;;;;;;5014120;28;20105;-76
2022/10/15 18:43:43;;;;;;;6.13;3.72;;;;;;;;;;4982525;28;20030;-77
2022/10/15 18:46:09;;;;;;;7.53;4.68;;;;;;;;;;5008418;28;20030;-78
2022/10/15 18:48:36;;;;;;;7.00;4.43;;;;;;;;;;4999996;28;20050;-77
2022/10/15 18:51:05;;;;;;;12.93;7.97;;;;;;;;;;5001035;28;20099;-77
2022/10/15 18:53:31;;;;;;;5.65;4.40;;;;;;;;;;4999612;28;20038;-76
2022/10/15 18:55:57;;;;;;;8.80;5.22;;;;;;;;;;5014051;28;20026;-77
2022/10/15 18:58:23;;;;;;;5.32;4.35;;;;;;;;;;4998758;28;20099;-77
2022/10/15 19:00:49;;;;;;;5.10;4.32;;;;;;;;;;5003316;28;20058;-78
2022/10/15 19:03:15;;;;;;;5.88;4.65;;;;;;;;;;4996444;28;20044;-77
2022/10/15 19:05:42;;;;;;;7.22;4.60;;;;;;;;;;5004900;28;20031;-77
2022/10/15 19:08:08;;;;;;;8.82;4.70;;;;;;;;;;4994704;28;20058;-78
2022/10/15 19:10:34;;;;;;;5.05;4.30;;;;;;;;;;4991736;28;20057;-77
2022/10/15 19:13:00;;;;;;;5.10;3.92;;;;;;;;;;4991315;28;20457;-77
2022/10/15 19:15:27;;;;;;;7.00;4.80;;;;;;;;;;4992426;28;20025;-78
2022/10/15 19:17:53;;;;;;;5.50;4.50;;;;;;;;;;4990998;28;20054;-80
2022/10/15 19:20:19;;;;;;;5.65;4.50;;;;;;;;;;4978485;28;20093;-77
2022/10/15 19:22:46;;;;;;;5.50;4.35;;;;;;;;;;5004245;28;20021;-78
2022/10/15 19:25:12;;;;;;;6.32;4.55;;;;;;;;;;4993639;28;20501;-78
2022/10/15 19:27:38;;;;;;;5.15;4.65;;;;;;;;;;4975508;28;20033;-78
2022/10/15 19:30:06;;;;;;;12.32;7.60;;;;;;;;;;4992894;28;20025;-81
2022/10/15 19:32:32;;;;;;;11.05;7.22;;;;;;;;;;4992556;28;20114;-78
2022/10/15 19:34:58;;;;;;;9.38;7.25;;;;;;;;;;4988594;28;20058;-77
2022/10/15 19:37:24;;;;;;;10.63;7.95;;;;;;;;;;4992694;28;20027;-80
2022/10/15 19:39:50;;;;;;;8.27;6.55;;;;;;;;;;4992917;28;20393;-77
2022/10/15 19:42:17;;;;;;;12.65;8.55;;;;;;;;;;4975271;28;20046;-77
2022/10/15 19:44:43;;;;;;;14.38;8.50;;;;;;;;;;4993082;28;20018;-77
2022/10/15 19:47:09;;;;;;;10.00;7.95;;;;;;;;;;4992412;28;20452;-77
2022/10/15 19:49:35;;;;;;;10.93;6.70;;;;;;;;;;4992789;28;20030;-77
2022/10/15 19:52:01;;;;;;;8.48;6.68;;;;;;;;;;4999300;28;20392;-76
2022/10/15 19:54:27;;;;;;;5.70;4.53;;;;;;;;;;5012157;28;20053;-77